createdAt,value
2024-05-09T00:00:48.021Z,99515.03
2024-05-09T00:03:15.266Z,99517.50
2024-05-09T00:05:43.354Z,99508.28
2024-05-09T00:08:11.403Z,99510.78
2024-05-09T00:10:40.022Z,99509.16
2024-05-09T00:13:08.878Z,99515.75
2024-05-09T00:15:37.048Z,99520.97
2024-05-09T00:18:08.174Z,99525.34
2024-05-09T00:20:39.543Z,99526.91
2024-05-09T00:23:10.870Z,99528.78
2024-05-09T00:25:39.024Z,99536.38
2024-05-09T00:28:06.542Z,99540.63
2024-05-09T00:30:36.155Z,99541.34
2024-05-09T00:33:11.601Z,99541.28
2024-05-09T00:35:39.914Z,99534.53
2024-05-09T00:38:07.343Z,99547.97
2024-05-09T00:40:40.128Z,99537.88
2024-05-09T00:43:14.104Z,99546.97
2024-05-09T00:45:42.792Z,99541.50
2024-05-09T00:48:17.750Z,99543.44
2024-05-09T00:50:47.614Z,99560.03
2024-05-09T00:53:17.491Z,99565.81
2024-05-09T00:55:46.506Z,99564.91
2024-05-09T00:58:20.983Z,99550.47
2024-05-09T01:00:50.027Z,99561.97
2024-05-09T01:03:18.245Z,99573.00
2024-05-09T01:05:45.799Z,99541.72
2024-05-09T01:08:13.452Z,99565.09
2024-05-09T01:10:45.101Z,99568.34
2024-05-09T01:13:14.278Z,99568.34
2024-05-09T01:15:41.738Z,99592.75
2024-05-09T01:18:13.279Z,99585.03
2024-05-09T01:20:43.895Z,99581.41
2024-05-09T01:23:14.874Z,99587.84
2024-05-09T01:25:45.292Z,99567.63
2024-05-09T01:28:13.351Z,99590.09
2024-05-09T01:30:40.599Z,99597.47
2024-05-09T01:33:09.947Z,99580.91
2024-05-09T01:35:41.328Z,99595.69
2024-05-09T01:38:10.086Z,99607.47
2024-05-09T01:40:39.761Z,99604.06
2024-05-09T01:43:09.654Z,99604.72
2024-05-09T01:45:38.665Z,99590.47
2024-05-09T01:48:06.369Z,99613.25
2024-05-09T01:50:38.888Z,99609.88
2024-05-09T01:53:10.565Z,99610.81
2024-05-09T01:55:37.836Z,99608.34
2024-05-09T01:58:05.098Z,99611.72
2024-05-09T02:00:38.899Z,99603.19
2024-05-09T02:03:15.905Z,99616.81
2024-05-09T02:05:46.875Z,99621.00
2024-05-09T02:08:19.337Z,99629.44
2024-05-09T02:10:48.253Z,99602.25
2024-05-09T02:13:18.024Z,99608.97
2024-05-09T02:15:45.330Z,99613.50
2024-05-09T02:18:13.426Z,99621.00
2024-05-09T02:20:42.395Z,99622.81
2024-05-09T02:23:10.513Z,99626.16
2024-05-09T02:25:37.694Z,99623.75
2024-05-09T02:28:05.037Z,99632.16
2024-05-09T02:30:39.442Z,99630.25
2024-05-09T02:33:13.124Z,99633.72
2024-05-09T02:35:43.783Z,99643.09
2024-05-09T02:38:12.511Z,99648.19
2024-05-09T02:40:40.504Z,99638.00
2024-05-09T02:43:10.190Z,99649.91
2024-05-09T02:45:38.994Z,99640.56
2024-05-09T02:48:07.161Z,99656.88
2024-05-09T02:50:38.754Z,99651.81
2024-05-09T02:53:08.400Z,99640.88
2024-05-09T02:55:36.101Z,99643.47
2024-05-09T02:58:03.121Z,99654.59
2024-05-09T03:00:38.206Z,99644.34
2024-05-09T03:03:09.991Z,99649.63
2024-05-09T03:05:39.126Z,99654.91
2024-05-09T03:08:06.569Z,99655.66
2024-05-09T03:10:36.625Z,99657.50
2024-05-09T03:13:05.949Z,99664.59
2024-05-09T03:15:33.240Z,99669.31
2024-05-09T03:18:01.463Z,99664.06
2024-05-09T03:20:34.035Z,99654.91
2024-05-09T03:23:03.518Z,99664.41
2024-05-09T03:25:30.819Z,99656.84
2024-05-09T03:27:57.836Z,99676.53
2024-05-09T03:30:38.128Z,99668.19
2024-05-09T03:33:20.162Z,99677.44
2024-05-09T03:35:49.088Z,99663.84
2024-05-09T03:38:17.068Z,99668.06
2024-05-09T03:40:49.297Z,99664.72
2024-05-09T03:43:17.924Z,99679.75
2024-05-09T03:45:45.925Z,99669.03
2024-05-09T03:48:13.540Z,99677.50
2024-05-09T03:50:41.328Z,99687.31
2024-05-09T03:53:13.468Z,99661.41
2024-05-09T03:55:41.007Z,99696.88
2024-05-09T03:58:08.541Z,99691.66
2024-05-09T04:00:39.160Z,99687.94
2024-05-09T04:03:10.611Z,99655.88
2024-05-09T04:05:40.807Z,99707.47
2024-05-09T04:08:09.511Z,99708.03
2024-05-09T04:10:40.527Z,99685.88
2024-05-09T04:13:07.678Z,99683.13
2024-05-09T04:15:34.778Z,99710.19
2024-05-09T04:18:02.670Z,99682.94
2024-05-09T04:20:37.950Z,99679.66
2024-05-09T04:23:11.384Z,99674.88
2024-05-09T04:25:41.082Z,99679.25
2024-05-09T04:28:09.037Z,99655.66
2024-05-09T04:30:39.421Z,99679.09
2024-05-09T04:33:11.168Z,99705.78
2024-05-09T04:35:42.632Z,99690.50
2024-05-09T04:38:10.287Z,99681.34
2024-05-09T04:40:37.910Z,99683.94
2024-05-09T04:43:06.719Z,99692.31
2024-05-09T04:45:36.423Z,99693.84
2024-05-09T04:48:03.914Z,99695.59
2024-05-09T04:50:36.847Z,99692.50
2024-05-09T04:53:10.665Z,99691.13
2024-05-09T04:55:39.954Z,99690.91
2024-05-09T04:58:09.276Z,99689.41
2024-05-09T05:00:39.013Z,99682.84
2024-05-09T05:03:14.573Z,99674.03
2024-05-09T05:05:45.384Z,99683.97
2024-05-09T05:08:19.012Z,99686.94
2024-05-09T05:10:48.208Z,99684.59
2024-05-09T05:13:17.972Z,99678.13
2024-05-09T05:15:57.237Z,99678.53
2024-05-09T05:18:26.734Z,99679.47
2024-05-09T05:20:56.057Z,99676.84
2024-05-09T05:23:23.426Z,99694.25
2024-05-09T05:25:55.377Z,99706.81
2024-05-09T05:28:23.044Z,99698.88
2024-05-09T05:30:50.375Z,99682.00
2024-05-09T05:33:22.529Z,99708.88
2024-05-09T05:35:50.337Z,99696.16
2024-05-09T05:38:17.428Z,99694.59
2024-05-09T05:40:44.677Z,99693.16
2024-05-09T05:43:18.938Z,99726.38
2024-05-09T05:45:46.407Z,99706.47
2024-05-09T05:48:17.822Z,99689.06
2024-05-09T05:50:45.458Z,99704.56
2024-05-09T05:53:12.582Z,99689.28
2024-05-09T05:55:40.965Z,99696.38
2024-05-09T05:58:14.564Z,99700.34
2024-05-09T06:00:42.487Z,99692.13
2024-05-09T06:03:16.264Z,99707.75
2024-05-09T06:05:44.488Z,99696.09
2024-05-09T06:08:12.570Z,99708.06
2024-05-09T06:10:41.654Z,99713.28
2024-05-09T06:13:15.962Z,99706.47
2024-05-09T06:15:46.433Z,99706.81
2024-05-09T06:18:16.712Z,99680.94
2024-05-09T06:20:44.426Z,99635.63
2024-05-09T06:23:14.578Z,99685.69
2024-05-09T06:25:42.925Z,99685.03
2024-05-09T06:28:14.333Z,99673.06
2024-05-09T06:30:42.957Z,99664.00
2024-05-09T06:33:18.443Z,99660.16
2024-05-09T06:42:25.235Z,99644.38
2024-05-09T06:44:52.466Z,99677.00
2024-05-09T06:47:19.702Z,99651.78
2024-05-09T06:49:53.521Z,99657.16
2024-05-09T06:52:20.716Z,99660.69
2024-05-09T06:54:53.746Z,99696.72
2024-05-09T06:57:23.877Z,99607.09
2024-05-09T06:59:52.432Z,99703.63
2024-05-09T07:02:29.806Z,99681.34
2024-05-09T07:05:00.018Z,99663.09
2024-05-09T07:07:29.855Z,99642.47
2024-05-09T07:09:57.283Z,99666.09
2024-05-09T07:12:24.943Z,99689.97
2024-05-09T07:14:55.136Z,99633.56
2024-05-09T07:17:25.271Z,99656.69
2024-05-09T07:19:55.605Z,99615.19
2024-05-09T07:22:27.945Z,99600.16
2024-05-09T07:24:55.062Z,99585.63
2024-05-09T07:27:34.278Z,99586.25
2024-05-09T07:30:16.710Z,99544.81
2024-05-09T07:32:50.715Z,99577.94
2024-05-09T07:35:25.482Z,99658.34
2024-05-09T07:37:59.708Z,99585.28
2024-05-09T07:40:44.920Z,99553.44
2024-05-09T07:43:18.441Z,99552.63
2024-05-09T07:45:54.131Z,99492.34
2024-05-09T07:50:34.290Z,99480.44
2024-05-09T07:53:08.601Z,99546.16
2024-05-09T07:54:17.553Z,99565.88
2024-05-09T07:56:51.358Z,99615.56
2024-05-09T07:59:19.467Z,99637.19
2024-05-09T08:01:48.676Z,99625.69
2024-05-09T08:04:26.724Z,99484.00
2024-05-09T08:06:57.890Z,99612.22
2024-05-09T08:09:30.991Z,99571.38
2024-05-09T08:12:02.274Z,99630.81
2024-05-09T08:14:30.314Z,99589.47
2024-05-09T08:17:04.281Z,99593.72
2024-05-09T08:19:31.938Z,99488.88
2024-05-09T08:22:09.443Z,99310.91
2024-05-09T08:24:57.754Z,99349.44
2024-05-09T08:27:32.668Z,99413.56
2024-05-09T08:30:10.092Z,99437.75
2024-05-09T08:32:39.638Z,99492.84
2024-05-09T08:35:07.153Z,99506.63
2024-05-09T08:37:38.710Z,99518.94
2024-05-09T08:40:11.142Z,99642.13
2024-05-09T08:42:52.921Z,99740.50
2024-05-09T08:45:20.082Z,99748.03
2024-05-09T08:47:53.798Z,99757.34
2024-05-09T08:50:31.637Z,99717.53
2024-05-09T08:53:09.097Z,99720.97
2024-05-09T08:55:40.543Z,99661.06
2024-05-09T08:58:14.150Z,99588.75
2024-05-09T09:00:43.356Z,99594.38
2024-05-09T09:03:14.791Z,99603.09
2024-05-09T09:05:47.180Z,99587.22
2024-05-09T09:08:15.951Z,99437.53
2024-05-09T09:10:43.520Z,99461.44
2024-05-09T09:13:11.353Z,99446.28
2024-05-09T09:15:51.215Z,99462.09
2024-05-09T09:18:19.008Z,99455.13
2024-05-09T09:20:46.274Z,99455.09
2024-05-09T09:23:13.416Z,99422.72
2024-05-09T09:25:43.400Z,99458.69
2024-05-09T09:28:10.724Z,99428.88
2024-05-09T09:30:41.990Z,99457.88
2024-05-09T09:33:10.324Z,99498.09
2024-05-09T09:35:40.012Z,99492.19
2024-05-09T09:38:08.157Z,99517.16
2024-05-09T09:40:46.699Z,99485.91
2024-05-09T09:43:23.391Z,99471.94
2024-05-09T09:45:53.338Z,99375.63
2024-05-09T09:48:22.838Z,99392.06
2024-05-09T09:50:52.630Z,99419.63
2024-05-09T09:53:20.110Z,99425.59
2024-05-09T09:55:49.240Z,99404.56
2024-05-09T09:58:18.270Z,99370.63
2024-05-09T10:00:45.990Z,99344.38
2024-05-09T10:03:13.459Z,99362.78
2024-05-09T10:05:46.145Z,99342.56
2024-05-09T10:08:16.804Z,99224.72
2024-05-09T10:10:50.124Z,99243.34
2024-05-09T10:13:18.104Z,99207.81
2024-05-09T10:15:53.843Z,99302.25
2024-05-09T10:18:27.288Z,99347.03
2024-05-09T10:20:56.704Z,99373.97
2024-05-09T10:23:24.924Z,99402.78
2024-05-09T10:25:59.132Z,99481.22
2024-05-09T10:28:30.540Z,99510.56
2024-05-09T10:31:11.533Z,99475.75
2024-05-09T10:33:53.398Z,99373.66
2024-05-09T10:36:23.320Z,99249.06
2024-05-09T10:38:51.639Z,99144.69
2024-05-09T10:41:20.140Z,99137.66
2024-05-09T10:43:48.020Z,99129.97
2024-05-09T10:46:15.978Z,99114.53
2024-05-09T10:48:44.835Z,98978.72
2024-05-09T10:51:13.615Z,98929.91
2024-05-09T10:53:45.250Z,98888.63
2024-05-09T10:56:14.634Z,98866.09
2024-05-09T10:58:42.202Z,98943.00
2024-05-09T11:01:10.419Z,98948.00
2024-05-09T11:03:38.801Z,98960.75
2024-05-09T11:06:06.949Z,98976.91
2024-05-09T11:08:35.245Z,98982.22
2024-05-09T11:11:07.139Z,98936.66
2024-05-09T11:13:36.501Z,98830.75
2024-05-09T11:16:04.765Z,98748.41
2024-05-09T11:18:36.513Z,98667.84
2024-05-09T11:21:13.658Z,98684.06
2024-05-09T11:23:41.450Z,98744.75
2024-05-09T11:26:09.280Z,98777.38
2024-05-09T11:28:36.337Z,98774.09
2024-05-09T11:31:08.371Z,98727.81
2024-05-09T11:33:44.350Z,98743.19
2024-05-09T11:36:12.031Z,98785.91
2024-05-09T11:38:39.283Z,98796.91
2024-05-09T11:41:06.886Z,98849.03
2024-05-09T11:43:33.988Z,98952.66
2024-05-09T11:46:02.831Z,98903.97
2024-05-09T11:48:30.735Z,98859.69
2024-05-09T11:50:58.142Z,98859.75
2024-05-09T11:53:25.115Z,98836.72
2024-05-09T11:55:52.380Z,98769.84
2024-05-09T11:58:21.606Z,98711.50
2024-05-09T12:00:49.099Z,98663.53
2024-05-09T12:03:16.265Z,98725.25
2024-05-09T12:05:45.134Z,98789.41
2024-05-09T12:08:12.519Z,98818.38
2024-05-09T12:10:39.678Z,98850.00
2024-05-09T12:13:07.576Z,98870.84
2024-05-09T12:15:38.870Z,98841.81
2024-05-09T12:18:08.111Z,98811.75
2024-05-09T12:20:38.729Z,98799.69
2024-05-09T12:23:09.870Z,98815.84
2024-05-09T12:25:39.195Z,98825.09
2024-05-09T12:28:07.700Z,98840.53
2024-05-09T12:30:38.753Z,98866.22
2024-05-09T12:33:09.015Z,98897.19
2024-05-09T12:35:36.595Z,98863.00
2024-05-09T12:38:04.396Z,98880.09
2024-05-09T12:40:36.618Z,98853.47
2024-05-09T12:43:10.039Z,98874.25
2024-05-09T12:45:38.720Z,98822.00
2024-05-09T12:48:11.912Z,98786.81
2024-05-09T12:50:39.824Z,98789.31
2024-05-09T12:53:07.336Z,98817.59
2024-05-09T12:55:43.732Z,98788.56
2024-05-09T12:58:19.546Z,98780.13
2024-05-09T13:00:47.304Z,98716.69
2024-05-09T13:03:15.929Z,98731.25
2024-05-09T13:05:45.354Z,98693.53
2024-05-09T13:08:13.529Z,98678.03
2024-05-09T13:10:41.076Z,98619.13
2024-05-09T13:13:10.478Z,98537.19
2024-05-09T13:15:37.910Z,98477.47
2024-05-09T13:18:06.146Z,98554.09
2024-05-09T13:20:35.554Z,98538.81
2024-05-09T13:23:05.385Z,98550.78
2024-05-09T13:25:38.087Z,98555.22
2024-05-09T13:28:06.978Z,98615.41
2024-05-09T13:30:39.559Z,98658.34
2024-05-09T13:33:14.519Z,98736.41
2024-05-09T13:35:47.051Z,98777.53
2024-05-09T13:38:18.455Z,98867.50
2024-05-09T13:40:45.908Z,98895.75
2024-05-09T13:43:13.780Z,98892.41
2024-05-09T13:45:40.966Z,98855.63
2024-05-09T13:48:10.118Z,98715.22
2024-05-09T13:50:37.655Z,98637.69
2024-05-09T13:53:07.247Z,98624.97
2024-05-09T13:55:38.377Z,98660.38
2024-05-09T13:58:06.628Z,98663.28
2024-05-09T14:00:44.072Z,98674.56
2024-05-09T14:03:17.016Z,98652.19
2024-05-09T14:05:45.772Z,98681.28
2024-05-09T14:08:15.350Z,98673.63
2024-05-09T14:10:44.446Z,98647.88
2024-05-09T14:13:13.129Z,98710.50
2024-05-09T14:15:40.908Z,98608.31
2024-05-09T14:18:12.383Z,98577.22
2024-05-09T14:20:41.299Z,98575.22
2024-05-09T14:23:08.464Z,98552.22
2024-05-09T14:25:39.043Z,98483.78
2024-05-09T14:28:09.715Z,98456.97
2024-05-09T14:30:38.512Z,98515.09
2024-05-09T14:33:07.364Z,98547.16
2024-05-09T14:35:35.610Z,98572.75
2024-05-09T14:38:03.189Z,98539.25
2024-05-09T14:40:40.473Z,98497.53
2024-05-09T14:43:15.890Z,98393.00
2024-05-09T14:45:44.119Z,98415.84
2024-05-09T14:48:15.784Z,98421.63
2024-05-09T14:50:43.872Z,98462.59
2024-05-09T14:53:12.664Z,98538.59
2024-05-09T14:55:42.241Z,98584.44
2024-05-09T14:58:11.416Z,98611.94
2024-05-09T15:00:47.916Z,98640.16
2024-05-09T15:03:19.641Z,98605.81
2024-05-09T15:05:51.586Z,98625.44
2024-05-09T15:08:20.257Z,98598.50
2024-05-09T15:10:50.300Z,98588.75
2024-05-09T15:13:21.540Z,98545.19
2024-05-09T15:15:49.318Z,98578.00
2024-05-09T15:18:18.262Z,98589.31
2024-05-09T15:20:46.305Z,98604.88
2024-05-09T15:23:14.026Z,98628.13
2024-05-09T15:25:42.008Z,98639.31
2024-05-09T15:28:09.666Z,98648.75
2024-05-09T15:30:37.591Z,98687.38
2024-05-09T15:33:06.334Z,98698.53
2024-05-09T15:35:34.724Z,98670.22
2024-05-09T15:38:03.561Z,98697.75
2024-05-09T15:40:38.189Z,98707.19
2024-05-09T15:43:09.587Z,98722.66
2024-05-09T15:45:38.678Z,98746.66
2024-05-09T15:48:06.795Z,98744.94
2024-05-09T15:50:38.919Z,98736.34
2024-05-09T15:53:09.958Z,98753.50
2024-05-09T15:55:38.193Z,98727.78
2024-05-09T15:58:06.560Z,98720.06
2024-05-09T16:00:42.817Z,98736.34
2024-05-09T16:03:14.228Z,98726.91
2024-05-09T16:05:46.546Z,98720.03
2024-05-09T16:08:15.191Z,98702.88
2024-05-09T16:10:48.500Z,98711.47
2024-05-09T16:13:40.022Z,98760.38
2024-05-09T16:16:08.318Z,98760.34
2024-05-09T16:18:36.040Z,98762.06
2024-05-09T16:21:03.081Z,98743.19
2024-05-09T16:23:30.058Z,98733.81
2024-05-09T16:26:00.679Z,98734.66
2024-05-09T16:28:34.151Z,98764.69
2024-05-09T16:31:04.189Z,98749.22
2024-05-09T16:33:34.652Z,98736.41
2024-05-09T16:36:06.952Z,98741.53
2024-05-09T16:38:34.168Z,98783.56
2024-05-09T16:41:02.931Z,98799.00
2024-05-09T16:43:30.012Z,98761.28
2024-05-09T16:46:00.469Z,98763.00
2024-05-09T16:48:27.861Z,98769.84
2024-05-09T16:50:54.949Z,98782.69
2024-05-09T16:53:22.016Z,98795.56
2024-05-09T16:55:49.253Z,98796.44
2024-05-09T16:58:16.622Z,98810.16
2024-05-09T17:00:46.072Z,98818.69
2024-05-09T17:03:21.119Z,98812.69
2024-05-09T17:05:48.592Z,98822.13
2024-05-09T17:08:21.196Z,98822.13
2024-05-09T17:10:51.306Z,98816.13
2024-05-09T17:13:21.300Z,98815.25
2024-05-09T17:15:52.403Z,98845.28
2024-05-09T17:18:22.584Z,98828.09
2024-05-09T17:20:51.587Z,98830.69
2024-05-09T17:23:18.718Z,98842.66
2024-05-09T17:25:48.534Z,98853.81
2024-05-09T17:28:18.797Z,98859.78
2024-05-09T17:30:55.919Z,98883.78
2024-05-09T17:33:26.789Z,98886.38
2024-05-09T17:35:56.146Z,98888.91
2024-05-09T17:38:35.251Z,98892.34
2024-05-09T17:44:31.385Z,98914.59
2024-05-09T17:47:01.669Z,98924.88
2024-05-09T17:49:31.517Z,98918.03
2024-05-09T17:52:01.229Z,98933.44
2024-05-09T17:54:31.247Z,98924.88
2024-05-09T17:57:01.502Z,98937.72
2024-05-09T17:59:29.367Z,98945.44
2024-05-09T18:01:57.681Z,98948.00
2024-05-09T18:04:25.044Z,98954.84
2024-05-09T18:06:55.109Z,98959.13
2024-05-09T18:09:22.822Z,98971.09
2024-05-09T18:11:50.114Z,98976.25
2024-05-09T18:14:19.420Z,98984.81
2024-05-09T18:16:49.468Z,99000.22
2024-05-09T18:19:28.347Z,98994.22
2024-05-09T18:22:01.332Z,98996.81
2024-05-09T18:30:45.517Z,99013.06
2024-05-09T18:33:17.130Z,99060.19
2024-05-09T18:35:51.735Z,99115.16
2024-05-09T18:38:22.270Z,99084.34
2024-05-09T18:41:04.442Z,99110.13
2024-05-09T18:43:45.167Z,99086.06
2024-05-09T18:46:22.315Z,99086.75
2024-05-09T18:48:49.926Z,99101.22
2024-05-09T18:51:17.155Z,99125.03
2024-05-09T18:53:45.092Z,99144.66
2024-05-09T18:56:12.411Z,99157.50
2024-05-09T18:58:39.452Z,99172.84
2024-05-09T19:01:06.556Z,99174.56
2024-05-09T19:03:35.267Z,99188.22
2024-05-09T19:06:02.731Z,99205.31
2024-05-09T19:08:30.946Z,99227.47
2024-05-09T19:11:01.555Z,99251.28
2024-05-09T19:13:28.795Z,99275.09
2024-05-09T19:16:03.989Z,99305.00
2024-05-09T19:18:38.099Z,99329.63
2024-05-09T19:21:05.570Z,99345.81
2024-05-09T19:23:35.483Z,99368.88
2024-05-09T19:26:05.257Z,99385.94
2024-05-09T19:28:32.535Z,99385.94
2024-05-09T19:30:59.661Z,99382.56
2024-05-09T19:33:26.692Z,99387.75
2024-05-09T19:35:54.208Z,99384.34
2024-05-09T19:38:24.283Z,99377.50
2024-05-09T19:40:51.377Z,99383.53
2024-05-09T19:43:18.740Z,99386.09
2024-05-09T19:45:46.929Z,99378.41
2024-05-09T19:48:14.482Z,99375.88
2024-05-09T19:50:44.211Z,99367.34
2024-05-09T19:53:15.860Z,99363.94
2024-05-09T19:55:43.314Z,99364.00
2024-05-09T19:58:11.530Z,99358.03
2024-05-09T20:00:42.118Z,99362.38
2024-05-09T20:03:12.647Z,99343.59
2024-05-09T20:05:44.059Z,99341.13
2024-05-09T20:08:11.374Z,99343.59
2024-05-09T20:10:41.597Z,99359.78
2024-05-09T20:13:09.183Z,99370.81
2024-05-09T20:15:37.931Z,99361.34
2024-05-09T20:18:06.417Z,99387.84
2024-05-09T20:20:39.249Z,99399.78
2024-05-09T20:23:13.221Z,99410.00
2024-05-09T20:25:40.930Z,99398.84
2024-05-09T20:28:08.210Z,99396.31
2024-05-09T20:30:36.351Z,99395.44
2024-05-09T20:33:07.509Z,99406.59
2024-05-09T20:35:36.226Z,99404.84
2024-05-09T20:38:04.376Z,99404.78
2024-05-09T20:40:36.114Z,99406.44
2024-05-09T20:43:07.049Z,99410.66
2024-05-09T20:45:34.954Z,99413.22
2024-05-09T20:48:02.581Z,99420.03
2024-05-09T20:50:37.246Z,99431.97
2024-05-09T20:53:13.050Z,99430.28
2024-05-09T20:55:41.818Z,99436.19
2024-05-09T20:58:09.703Z,99436.13
2024-05-09T21:00:40.727Z,99443.78
2024-05-09T21:03:11.811Z,99445.47
2024-05-09T21:05:40.153Z,99459.09
2024-05-09T21:08:07.858Z,99471.88
2024-05-09T21:10:36.537Z,99459.09
2024-05-09T21:13:06.704Z,99460.75
2024-05-09T21:15:35.118Z,99458.16
2024-05-09T21:18:02.992Z,99466.69
2024-05-09T21:20:32.953Z,99470.06
2024-05-09T21:23:01.906Z,99467.44
2024-05-09T21:25:29.547Z,99468.25
2024-05-09T21:27:56.708Z,99471.63
2024-05-09T21:32:54.224Z,99466.47
2024-05-09T21:35:21.394Z,99465.66
2024-05-09T21:37:48.549Z,99437.47
2024-05-09T21:40:24.370Z,99418.75
2024-05-09T21:42:58.497Z,99424.72
2024-05-09T21:45:25.507Z,99418.69
2024-05-09T21:47:52.783Z,99404.19
2024-05-09T21:50:27.357Z,99415.31
2024-05-09T21:52:58.950Z,99392.22
2024-05-09T21:55:26.087Z,99391.41
2024-05-09T21:57:53.185Z,99383.75
2024-05-09T22:00:28.423Z,99378.63
2024-05-09T22:03:02.584Z,99375.22
2024-05-09T22:05:29.823Z,99385.38
2024-05-09T22:07:57.275Z,99381.84
2024-05-09T22:10:31.000Z,99380.06
2024-05-09T22:13:01.757Z,99380.00
2024-05-09T22:15:29.108Z,99380.84
2024-05-09T22:17:57.625Z,99381.75
2024-05-09T22:20:34.278Z,99375.81
2024-05-09T22:23:05.353Z,99363.00
2024-05-09T22:25:32.961Z,99365.56
2024-05-09T22:28:01.706Z,99346.84
2024-05-09T22:30:35.945Z,99322.09
2024-05-09T22:33:10.871Z,99287.13
2024-05-09T22:35:40.040Z,99270.97
2024-05-09T22:38:07.336Z,99267.59
2024-05-09T22:40:44.956Z,99272.72
2024-05-09T22:43:23.447Z,99267.66
2024-05-09T22:45:54.987Z,99262.50
2024-05-09T22:48:26.168Z,99255.69
2024-05-09T22:50:54.559Z,99254.00
2024-05-09T22:53:27.131Z,99255.81
2024-05-09T22:55:54.484Z,99242.06
2024-05-09T22:58:23.379Z,99248.09
2024-05-09T23:00:50.944Z,99231.81
2024-05-09T23:03:21.103Z,99235.28
2024-05-09T23:05:48.689Z,99235.28
2024-05-09T23:08:15.683Z,99243.81
2024-05-09T23:10:42.843Z,99221.59
2024-05-09T23:13:10.018Z,99218.22
2024-05-09T23:15:38.444Z,99218.22
2024-05-09T23:18:06.337Z,99221.66
2024-05-09T23:20:38.064Z,99216.53
2024-05-09T23:23:11.421Z,99221.66
2024-05-09T23:25:41.409Z,99209.66
2024-05-09T23:28:08.887Z,99208.81
2024-05-09T23:30:39.346Z,99187.44
2024-05-09T23:33:14.241Z,99182.34
2024-05-09T23:35:42.463Z,99193.53
2024-05-09T23:38:09.786Z,99185.00
2024-05-09T23:40:39.972Z,99164.50
2024-05-09T23:43:10.915Z,99170.50
2024-05-09T23:45:40.110Z,99162.78
2024-05-09T23:48:11.088Z,99159.38
2024-05-09T23:50:40.074Z,99154.22
2024-05-09T23:53:09.470Z,99148.25
2024-05-09T23:55:37.911Z,99149.09
2024-05-09T23:58:05.789Z,99149.06
